Time;durP1;ratioP1;P1;durP2;ratioP2;P2;SDS_P1;SDS_P2;PMS_P1;PMS_P2;Temp;Humidity;BMP_temperature;BMP_pressure;BME280_temperature;BME280_humidity;BME280_pressure;Samples;Min_cycle;Max_cycle;Signal;HPM_P1;HPM_P2
2022/07/02 00:00:44;;;;;;;0.73;0.57;;;;;;;14.71;100.00;99185.97;5097721;28;20478;-68
2022/07/02 00:03:37;;;;;;;2.42;0.80;;;;;;;14.76;100.00;99184.69;5113709;28;20036;-67
2022/07/02 00:06:25;;;;;;;1.30;0.52;;;;;;;14.79;100.00;99183.56;5103181;28;20035;-67
2022/07/02 00:09:10;;;;;;;2.45;0.77;;;;;;;14.75;100.00;99171.63;5090666;28;20040;-67
2022/07/02 00:11:59;;;;;;;3.28;0.70;;;;;;;14.72;100.00;99170.03;5094591;28;20111;-68
2022/07/02 00:14:45;;;;;;;3.00;0.60;;;;;;;14.79;100.00;99173.03;5088486;28;20385;-68
2022/07/02 00:17:30;;;;;;;0.98;0.57;;;;;;;14.76;100.00;99191.72;5112578;28;20074;-67
2022/07/02 00:20:15;;;;;;;2.25;0.60;;;;;;;14.86;100.00;99200.63;5104592;28;20042;-67
2022/07/02 00:23:00;;;;;;;1.17;0.73;;;;;;;14.69;100.00;99214.28;5127117;28;20375;-67
2022/07/02 00:25:57;;;;;;;1.30;0.80;;;;;;;14.60;100.00;99216.69;5087974;28;20505;-67
2022/07/02 00:28:42;;;;;;;0.90;0.60;;;;;;;14.57;100.00;99248.56;5116466;28;20039;-66
2022/07/02 00:31:27;;;;;;;1.10;0.65;;;;;;;14.71;100.00;99250.13;5100817;28;20463;-70
2022/07/02 00:34:15;;;;;;;2.13;0.82;;;;;;;14.83;100.00;99242.22;5097706;28;20052;-67
2022/07/02 00:37:01;;;;;;;1.25;0.80;;;;;;;14.76;100.00;99249.75;5100342;28;20024;-68
2022/07/02 00:39:47;;;;;;;1.67;1.00;;;;;;;14.60;100.00;99252.75;5097434;28;20044;-68
2022/07/02 00:42:35;;;;;;;1.25;0.73;;;;;;;14.53;100.00;99247.13;5097261;28;20040;-68
2022/07/02 00:45:20;;;;;;;1.10;0.75;;;;;;;14.45;100.00;99246.88;5111469;28;20031;-66
2022/07/02 00:48:06;;;;;;;1.67;0.95;;;;;;;14.54;100.00;99225.91;5084997;28;20050;-68
2022/07/02 00:50:50;;;;;;;2.22;1.20;;;;;;;14.60;100.00;99235.16;5106440;28;20426;-67
2022/07/02 00:53:35;;;;;;;1.58;0.90;;;;;;;14.58;100.00;99210.69;5111715;28;20056;-68
2022/07/02 00:56:20;;;;;;;1.40;1.13;;;;;;;14.60;100.00;99219.31;5085691;28;20111;-66
2022/07/02 00:59:06;;;;;;;2.40;1.10;;;;;;;14.52;100.00;99211.19;5088464;28;20068;-68
2022/07/02 01:01:51;;;;;;;2.55;1.00;;;;;;;14.54;100.00;99191.63;5095101;28;20047;-67
2022/07/02 01:04:39;;;;;;;1.92;1.00;;;;;;;14.50;100.00;99219.22;5112289;28;20035;-66
2022/07/02 01:07:24;;;;;;;2.67;1.10;;;;;;;14.47;100.00;99226.50;5112587;28;20044;-67
2022/07/02 01:10:17;;;;;;;2.72;1.23;;;;;;;14.49;100.00;99232.50;5089067;28;20040;-67
2022/07/02 01:13:03;;;;;;;2.10;1.10;;;;;;;14.48;100.00;99231.66;5095689;28;20473;-66
2022/07/02 01:15:48;;;;;;;2.72;1.30;;;;;;;14.38;100.00;99247.34;5112890;28;20035;-67
2022/07/02 01:18:34;;;;;;;1.10;0.95;;;;;;;14.39;100.00;99253.47;5096161;28;20039;-66
2022/07/02 01:21:19;;;;;;;3.15;1.23;;;;;;;14.33;100.00;99259.22;5075794;28;20040;-67
2022/07/02 01:24:04;;;;;;;1.90;1.10;;;;;;;14.41;100.00;99259.47;5102511;28;20059;-67
2022/07/02 01:26:49;;;;;;;2.45;1.15;;;;;;;14.59;100.00;99267.72;5111510;28;20470;-67
2022/07/02 01:29:34;;;;;;;1.48;1.05;;;;;;;14.55;100.00;99258.38;5112544;28;20109;-67
2022/07/02 01:32:19;;;;;;;1.92;1.40;;;;;;;14.56;100.00;99272.41;5095310;28;20036;-69
2022/07/02 01:35:06;;;;;;;1.77;1.13;;;;;;;14.52;100.00;99288.47;5111748;28;20178;-68
2022/07/02 01:37:52;;;;;;;2.58;1.10;;;;;;;14.49;100.00;99259.69;5111747;28;20035;-67
2022/07/02 01:40:37;;;;;;;1.92;1.33;;;;;;;14.58;100.00;99273.13;5096445;28;20093;-68
2022/07/02 01:43:22;;;;;;;2.70;1.25;;;;;;;14.48;100.00;99276.47;5096710;28;20042;-68
2022/07/02 01:46:07;;;;;;;1.50;1.10;;;;;;;14.53;100.00;99269.06;5102843;28;20028;-68
2022/07/02 01:48:52;;;;;;;1.67;1.05;;;;;;;14.45;100.00;99276.72;5111199;28;20043;-67
2022/07/02 01:51:37;;;;;;;1.42;1.17;;;;;;;14.66;100.00;99266.31;5082576;28;20078;-67
2022/07/02 01:54:22;;;;;;;2.15;1.08;;;;;;;14.60;100.00;99263.31;5091018;28;20105;-67
2022/07/02 01:57:07;;;;;;;1.00;0.90;;;;;;;14.41;100.00;99267.38;5093723;28;20139;-68
2022/07/02 01:59:51;;;;;;;2.67;0.95;;;;;;;14.35;100.00;99263.41;5113187;28;20035;-67
2022/07/02 02:02:37;;;;;;;1.58;0.90;;;;;;;14.47;100.00;99258.97;5080813;28;20038;-68
2022/07/02 02:05:21;;;;;;;1.38;1.02;;;;;;;14.56;100.00;99261.88;5097218;28;20046;-68
2022/07/02 02:08:10;;;;;;;2.80;1.10;;;;;;;14.48;100.00;99265.06;5113810;28;20039;-67
2022/07/02 02:10:56;;;;;;;1.38;1.10;;;;;;;14.48;100.00;99273.84;5115149;28;20051;-68
2022/07/02 02:13:42;;;;;;;1.33;1.00;;;;;;;14.37;100.00;99274.66;5113300;28;20134;-68
2022/07/02 02:16:28;;;;;;;5.45;1.30;;;;;;;14.40;100.00;99270.94;5101246;28;20360;-67
2022/07/02 02:19:14;;;;;;;1.38;0.98;;;;;;;14.28;100.00;99272.75;5111156;28;20058;-67
2022/07/02 02:21:59;;;;;;;2.55;1.13;;;;;;;14.22;100.00;99265.28;5078358;28;20043;-68
2022/07/02 02:24:44;;;;;;;2.08;1.10;;;;;;;14.19;100.00;99266.38;5100409;28;20036;-67
2022/07/02 02:27:28;;;;;;;1.83;1.20;;;;;;;14.33;100.00;99281.09;5115577;28;20423;-66
2022/07/02 02:30:14;;;;;;;1.63;1.10;;;;;;;14.36;100.00;99269.50;5114870;28;20040;-68
2022/07/02 02:33:00;;;;;;;1.95;1.40;;;;;;;14.19;100.00;99249.72;5082751;28;20051;-67
2022/07/02 02:35:45;;;;;;;3.97;1.05;;;;;;;14.21;100.00;99296.06;5086296;28;20031;-67
2022/07/02 02:38:30;;;;;;;1.65;0.90;;;;;;;14.21;100.00;99267.09;5114169;28;20462;-68
2022/07/02 02:41:15;;;;;;;1.30;1.00;;;;;;;14.20;100.00;99280.38;5099653;28;20367;-67
2022/07/02 02:43:59;;;;;;;2.38;1.15;;;;;;;14.39;100.00;99278.00;5098200;28;20073;-67
2022/07/02 02:46:44;;;;;;;2.13;0.98;;;;;;;14.47;100.00;99266.03;5114938;28;20057;-68
2022/07/02 02:49:28;;;;;;;1.25;0.80;;;;;;;14.27;100.00;99278.94;5101330;28;20040;-68
2022/07/02 02:52:13;;;;;;;1.63;0.90;;;;;;;14.31;100.00;99296.22;5084350;28;20493;-67
2022/07/02 02:54:58;;;;;;;2.25;1.17;;;;;;;14.45;100.00;99255.63;5074466;28;20036;-68
2022/07/02 02:57:42;;;;;;;1.35;1.02;;;;;;;14.50;100.00;99276.34;5085836;28;20065;-68
2022/07/02 03:00:27;;;;;;;1.40;1.00;;;;;;;14.24;100.00;99279.19;5113777;28;20071;-67
2022/07/02 03:03:12;;;;;;;1.95;0.77;;;;;;;14.13;100.00;99280.81;5104163;28;20040;-67
2022/07/02 03:05:57;;;;;;;1.83;0.95;;;;;;;14.12;100.00;99287.06;5083951;28;20038;-66
2022/07/02 03:08:42;;;;;;;1.48;0.75;;;;;;;14.19;100.00;99271.63;5084467;28;20040;-68
2022/07/02 03:11:27;;;;;;;2.60;0.77;;;;;;;14.24;100.00;99276.53;5098652;28;20043;-67
2022/07/02 03:14:12;;;;;;;2.38;0.77;;;;;;;14.29;100.00;99280.53;5086161;28;20110;-68
2022/07/02 03:16:57;;;;;;;0.95;0.68;;;;;;;14.32;100.00;99270.69;5114940;28;20036;-68
2022/07/02 03:19:42;;;;;;;1.00;0.80;;;;;;;14.19;100.00;99286.59;5112497;28;20132;-68
2022/07/02 03:22:26;;;;;;;0.98;0.77;;;;;;;14.21;100.00;99285.53;5113942;28;20048;-68
2022/07/02 03:25:11;;;;;;;1.15;0.68;;;;;;;14.30;100.00;99281.34;5087907;28;20051;-67
2022/07/02 03:27:56;;;;;;;2.92;0.55;;;;;;;14.41;100.00;99280.56;5068851;28;20048;-67
2022/07/02 03:30:40;;;;;;;1.48;0.70;;;;;;;14.27;100.00;99281.59;5068406;28;20035;-71
2022/07/02 03:33:25;;;;;;;1.00;0.63;;;;;;;14.39;100.00;99283.28;5111113;28;20102;-70
2022/07/02 03:36:11;;;;;;;0.73;0.45;;;;;;;14.74;100.00;99286.78;5097557;28;20035;-70
2022/07/02 03:38:56;;;;;;;1.02;0.57;;;;;;;14.57;100.00;99289.91;5100825;28;20028;-68
2022/07/02 03:41:41;;;;;;;1.40;0.70;;;;;;;14.64;100.00;99297.22;5113244;28;20042;-70
2022/07/02 03:44:25;;;;;;;0.77;0.55;;;;;;;14.50;100.00;99300.06;5074360;28;20045;-69
2022/07/02 03:47:10;;;;;;;2.45;1.23;;;;;;;14.74;100.00;99301.75;5081944;28;20044;-69
2022/07/02 03:49:55;;;;;;;1.48;0.65;;;;;;;14.67;100.00;99304.06;5113921;28;20048;-70
2022/07/02 03:52:40;;;;;;;3.58;0.65;;;;;;;14.50;100.00;99305.34;5102159;28;20045;-68
2022/07/02 03:55:24;;;;;;;2.40;0.82;;;;;;;14.41;100.00;99314.81;5087178;28;20110;-68
2022/07/02 03:58:09;;;;;;;1.20;0.60;;;;;;;14.47;100.00;99314.34;5119296;28;20474;-68
2022/07/02 04:00:54;;;;;;;1.10;0.77;;;;;;;14.65;100.00;99321.78;5092336;28;20047;-69
2022/07/02 04:03:39;;;;;;;1.58;0.55;;;;;;;14.60;100.00;99335.34;5099428;28;20055;-68
2022/07/02 04:06:23;;;;;;;0.95;0.50;;;;;;;14.70;100.00;99326.72;5110202;28;20059;-69
2022/07/02 04:09:10;;;;;;;1.27;0.70;;;;;;;14.82;100.00;99352.16;5110554;28;20043;-68
2022/07/02 04:11:55;;;;;;;1.83;0.50;;;;;;;14.93;100.00;99348.72;5097298;28;20035;-69
2022/07/02 04:14:40;;;;;;;1.52;0.40;;;;;;;14.90;98.51;99364.78;5113489;28;20032;-69
2022/07/02 04:17:25;;;;;;;1.90;0.40;;;;;;;15.06;98.11;99368.84;5112303;28;20047;-69
2022/07/02 04:20:10;;;;;;;1.33;0.88;;;;;;;15.35;97.21;99382.41;5096959;28;20040;-69
2022/07/02 04:22:55;;;;;;;1.05;0.50;;;;;;;15.29;97.92;99379.41;5110976;28;20062;-67
2022/07/02 04:25:39;;;;;;;1.08;0.60;;;;;;;15.23;95.89;99391.25;5103089;28;20097;-68
2022/07/02 04:28:25;;;;;;;0.60;0.50;;;;;;;15.43;94.85;99395.00;5096830;28;20043;-70
2022/07/02 04:31:10;;;;;;;1.10;0.55;;;;;;;15.29;94.80;99393.44;5097276;28;20036;-70
2022/07/02 04:33:55;;;;;;;1.88;0.60;;;;;;;15.33;94.61;99392.22;5097901;28;20081;-70
2022/07/02 04:36:40;;;;;;;2.28;0.45;;;;;;;15.54;92.75;99401.22;5098231;28;20048;-68
2022/07/02 04:39:25;;;;;;;0.80;0.45;;;;;;;15.43;94.07;99408.19;5112397;28;20035;-70
2022/07/02 04:42:09;;;;;;;0.88;0.60;;;;;;;15.24;94.66;99400.88;5084248;28;20042;-69
2022/07/02 04:44:54;;;;;;;0.80;0.40;;;;;;;15.27;93.97;99408.56;5104143;28;20047;-67
2022/07/02 04:47:39;;;;;;;1.02;0.55;;;;;;;15.38;94.99;99418.25;5112930;28;20039;-66
2022/07/02 04:50:24;;;;;;;0.75;0.50;;;;;;;15.47;95.77;99422.00;5082165;28;20441;-69
2022/07/02 04:53:09;;;;;;;1.63;0.50;;;;;;;15.15;94.50;99427.03;5083366;28;20501;-69
2022/07/02 04:55:53;;;;;;;1.85;0.55;;;;;;;15.36;96.40;99431.59;5105887;28;20040;-68
2022/07/02 04:58:38;;;;;;;1.17;0.50;;;;;;;15.42;92.96;99440.84;5077002;28;20518;-62
2022/07/02 05:01:25;;;;;;;2.58;0.68;;;;;;;15.56;91.68;99441.53;5086371;28;20040;-69
2022/07/02 05:04:10;;;;;;;2.10;0.47;;;;;;;15.76;91.92;99438.16;5097154;28;20379;-67
2022/07/02 05:06:55;;;;;;;2.83;0.57;;;;;;;16.15;90.34;99442.19;5076339;28;20499;-69
2022/07/02 05:09:40;;;;;;;3.47;0.50;;;;;;;16.22;88.74;99446.00;5098655;28;20031;-68
2022/07/02 05:12:25;;;;;;;0.68;0.50;;;;;;;16.26;89.30;99446.59;5097374;28;20049;-69
2022/07/02 05:15:10;;;;;;;0.68;0.40;;;;;;;16.22;88.58;99455.75;5087657;28;20036;-68
2022/07/02 05:17:55;;;;;;;1.17;0.45;;;;;;;16.49;88.29;99467.66;5124369;28;20035;-67
2022/07/02 05:20:40;;;;;;;1.05;0.50;;;;;;;16.38;89.25;99477.31;5112667;28;20050;-67
2022/07/02 05:23:25;;;;;;;0.68;0.40;;;;;;;16.63;87.60;99472.63;5096791;28;20078;-66
2022/07/02 05:26:10;;;;;;;0.75;0.40;;;;;;;16.72;84.85;99484.28;5082265;28;20043;-65
2022/07/02 05:28:55;;;;;;;2.55;0.60;;;;;;;16.83;88.47;99487.81;5097137;28;20097;-70
2022/07/02 05:31:39;;;;;;;1.45;0.43;;;;;;;17.02;83.65;99487.13;5097477;28;20292;-69
2022/07/02 05:34:24;;;;;;;2.53;0.45;;;;;;;16.73;87.42;99495.66;5111779;28;20047;-67
2022/07/02 05:37:09;;;;;;;1.67;0.40;;;;;;;17.00;84.26;99499.63;5055075;28;20051;-68
2022/07/02 05:39:53;;;;;;;0.85;0.40;;;;;;;16.67;85.16;99498.84;5112353;28;20055;-70
2022/07/02 05:42:38;;;;;;;1.67;0.47;;;;;;;16.97;84.06;99497.25;5114291;28;20062;-69
2022/07/02 05:45:23;;;;;;;1.13;0.70;;;;;;;17.12;85.42;99495.13;5100206;28;20036;-70
2022/07/02 05:48:08;;;;;;;2.22;0.60;;;;;;;17.24;82.89;99509.16;5115791;28;20437;-69
2022/07/02 05:50:52;;;;;;;1.85;0.52;;;;;;;16.96;82.34;99508.78;5102962;28;20497;-68
2022/07/02 05:53:37;;;;;;;3.42;0.65;;;;;;;17.09;82.92;99508.63;5115018;28;20050;-68
2022/07/02 05:56:22;;;;;;;1.92;0.60;;;;;;;17.40;81.95;99523.75;5099824;28;20043;-68
2022/07/02 05:59:06;;;;;;;1.48;0.50;;;;;;;17.44;82.28;99519.84;5099321;28;20036;-69
2022/07/02 06:01:51;;;;;;;1.40;0.70;;;;;;;17.41;81.61;99517.47;5100344;28;20495;-69
2022/07/02 06:04:36;;;;;;;0.73;0.52;;;;;;;17.56;81.08;99516.13;5086734;28;20059;-68
2022/07/02 06:07:38;;;;;;;0.77;0.45;;;;;;;17.76;80.29;99523.34;5099899;28;20084;-66
2022/07/02 06:10:24;;;;;;;2.90;0.68;;;;;;;18.37;78.03;99521.56;5085840;28;20043;-66
2022/07/02 06:13:09;;;;;;;2.53;0.65;;;;;;;18.56;79.17;99517.25;5101700;28;20394;-67
2022/07/02 06:15:54;;;;;;;2.63;0.70;;;;;;;18.35;75.37;99526.16;5114810;28;20032;-67
2022/07/02 06:18:39;;;;;;;2.38;0.70;;;;;;;18.52;75.95;99537.09;5057376;28;20048;-70
2022/07/02 06:21:24;;;;;;;1.10;0.70;;;;;;;18.61;74.01;99522.97;5099756;28;20036;-68
2022/07/02 06:24:13;;;;;;;1.50;0.60;;;;;;;18.77;75.36;99527.72;5115024;28;20057;-68
2022/07/02 06:26:57;;;;;;;2.45;0.80;;;;;;;18.92;73.57;99525.50;5101052;28;20043;-68
2022/07/02 06:29:42;;;;;;;2.60;0.73;;;;;;;18.89;76.52;99530.25;5099409;28;20066;-67
2022/07/02 06:32:28;;;;;;;1.33;0.73;;;;;;;18.86;76.05;99541.13;5078872;28;20043;-60
2022/07/02 06:35:13;;;;;;;2.28;0.63;;;;;;;18.68;74.11;99528.56;5090240;28;20078;-64
2022/07/02 06:37:57;;;;;;;1.10;0.68;;;;;;;19.51;73.16;99532.53;5092358;28;20474;-63
2022/07/02 06:40:43;;;;;;;2.10;0.60;;;;;;;19.92;76.80;99537.56;5090441;28;20044;-67
2022/07/02 06:43:28;;;;;;;1.00;0.57;;;;;;;21.33;64.63;99531.88;5112237;28;20083;-68
2022/07/02 06:46:13;;;;;;;6.80;1.00;;;;;;;20.70;66.68;99531.88;5079077;28;20111;-68
2022/07/02 06:49:00;;;;;;;1.48;0.70;;;;;;;21.01;63.79;99533.34;5098389;28;20376;-67
2022/07/02 06:51:45;;;;;;;1.50;0.90;;;;;;;20.75;68.48;99534.94;5114188;28;20085;-66
2022/07/02 06:54:31;;;;;;;5.63;1.20;;;;;;;20.93;63.76;99534.09;5091631;28;20546;-65
2022/07/02 06:57:17;;;;;;;4.78;1.27;;;;;;;20.45;64.46;99523.66;5110827;28;20040;-66
2022/07/02 07:00:03;;;;;;;2.10;1.02;;;;;;;20.35;64.38;99522.91;5070823;28;20040;-67
2022/07/02 07:02:48;;;;;;;1.88;0.93;;;;;;;20.82;63.74;99537.81;5101489;28;20031;-65
2022/07/02 07:05:33;;;;;;;1.95;1.20;;;;;;;20.46;63.49;99527.19;5084665;28;20111;-67
2022/07/02 07:08:19;;;;;;;2.80;1.23;;;;;;;20.81;62.64;99520.16;5041915;28;20035;-66
2022/07/02 07:11:04;;;;;;;1.65;1.27;;;;;;;19.43;66.24;99524.44;5080082;28;20399;-67
2022/07/02 07:13:49;;;;;;;2.00;1.13;;;;;;;19.84;65.99;99525.97;5086618;28;20043;-67
2022/07/02 07:16:34;;;;;;;4.85;1.45;;;;;;;20.97;62.59;99524.81;5086343;28;20486;-66
2022/07/02 07:19:20;;;;;;;1.95;1.00;;;;;;;20.57;63.57;99529.63;5065630;28;20490;-65
2022/07/02 07:22:05;;;;;;;1.98;1.40;;;;;;;20.49;62.70;99533.03;5072282;28;20036;-67
2022/07/02 07:24:53;;;;;;;1.83;1.20;;;;;;;20.38;62.69;99527.94;5070471;28;20483;-66
2022/07/02 07:27:38;;;;;;;2.78;1.20;;;;;;;20.71;62.77;99522.09;5066406;28;20181;-66
2022/07/02 07:30:26;;;;;;;1.88;1.27;;;;;;;21.41;59.87;99517.78;5052892;28;20040;-68
2022/07/02 07:33:11;;;;;;;1.40;1.00;;;;;;;22.24;59.28;99528.81;5066713;28;20049;-67
2022/07/02 07:35:57;;;;;;;2.65;1.00;;;;;;;22.09;56.72;99533.94;5117601;28;20047;-66
2022/07/02 07:38:42;;;;;;;1.73;1.00;;;;;;;21.75;57.52;99530.28;5080993;28;20115;-67
2022/07/02 07:41:29;;;;;;;2.40;1.55;;;;;;;21.18;59.44;99531.63;5087359;28;20441;-66
2022/07/02 07:44:14;;;;;;;4.03;1.40;;;;;;;21.00;60.47;99540.50;5069320;28;20528;-66
2022/07/02 07:47:00;;;;;;;3.53;1.48;;;;;;;20.45;62.96;99539.63;5065821;28;20035;-67
2022/07/02 07:49:45;;;;;;;1.80;1.10;;;;;;;20.77;63.07;99540.94;5038483;28;20052;-66
2022/07/02 07:52:31;;;;;;;3.70;1.35;;;;;;;22.10;57.80;99546.28;5051210;28;20117;-66
2022/07/02 07:55:17;;;;;;;1.55;1.13;;;;;;;22.65;55.43;99537.94;5079299;28;20044;-66
2022/07/02 07:58:03;;;;;;;4.30;1.13;;;;;;;22.47;56.11;99546.03;5050572;28;20071;-65
2022/07/02 08:00:48;;;;;;;4.63;1.23;;;;;;;23.00;54.34;99554.63;5073883;28;20068;-66
2022/07/02 08:03:33;;;;;;;1.58;1.10;;;;;;;21.41;58.60;99537.25;5043544;28;20093;-68
2022/07/02 08:06:19;;;;;;;2.35;1.20;;;;;;;21.29;60.03;99541.19;5057733;28;20439;-68
2022/07/02 08:09:07;;;;;;;1.80;1.17;;;;;;;22.17;56.44;99546.47;5050417;28;20075;-66
2022/07/02 08:11:55;;;;;;;3.00;1.17;;;;;;;22.61;54.88;99541.91;5078955;28;20090;-67
2022/07/02 08:14:41;;;;;;;2.92;1.10;;;;;;;22.99;53.69;99544.09;5036343;28;20143;-65
2022/07/02 08:17:29;;;;;;;2.13;1.02;;;;;;;22.74;53.44;99539.59;5064868;28;20430;-66
2022/07/02 08:20:15;;;;;;;2.22;1.02;;;;;;;22.91;52.78;99534.25;5083800;28;20385;-65
2022/07/02 08:23:01;;;;;;;1.58;1.13;;;;;;;23.52;52.33;99541.03;5067691;28;20062;-66
2022/07/02 08:25:49;;;;;;;1.33;1.10;;;;;;;24.89;50.38;99546.16;5084253;28;20047;-67
2022/07/02 08:28:34;;;;;;;1.77;1.25;;;;;;;23.50;52.69;99541.22;5082821;28;20047;-66
2022/07/02 08:31:20;;;;;;;2.70;1.40;;;;;;;22.63;53.61;99539.91;5097550;28;20058;-66
2022/07/02 08:34:06;;;;;;;3.33;1.00;;;;;;;22.77;55.13;99539.25;5060663;28;20044;-66
2022/07/02 08:36:51;;;;;;;1.90;1.20;;;;;;;22.76;54.97;99542.09;5080443;28;20466;-67
2022/07/02 08:39:37;;;;;;;2.45;1.10;;;;;;;23.63;51.97;99539.84;5056140;28;20039;-66
2022/07/02 08:42:30;;;;;;;1.60;1.00;;;;;;;23.16;52.47;99544.91;5064595;28;20075;-67
2022/07/02 08:45:17;;;;;;;2.00;1.20;;;;;;;23.74;51.34;99542.16;5094176;28;20117;-68
2022/07/02 08:48:07;;;;;;;3.28;0.93;;;;;;;23.40;52.65;99548.59;5098186;28;20469;-66
2022/07/02 08:50:54;;;;;;;2.97;1.00;;;;;;;23.03;53.63;99557.97;5070619;28;20038;-67
2022/07/02 08:53:41;;;;;;;1.48;1.00;;;;;;;23.54;51.13;99552.41;5083022;28;20051;-65
2022/07/02 08:56:28;;;;;;;2.45;1.27;;;;;;;24.42;49.00;99548.84;5073572;28;20085;-67
2022/07/02 08:59:13;;;;;;;1.52;0.98;;;;;;;25.09;47.99;99545.69;5097006;28;20106;-67
2022/07/02 09:02:02;;;;;;;2.83;1.35;;;;;;;24.81;47.99;99546.22;5096687;28;20489;-66
2022/07/02 09:04:48;;;;;;;2.53;1.10;;;;;;;25.30;49.04;99542.31;5065977;28;20464;-67
2022/07/02 09:07:35;;;;;;;2.17;0.93;;;;;;;25.38;46.43;99543.25;5109321;28;20047;-65
2022/07/02 09:10:22;;;;;;;2.55;0.93;;;;;;;26.47;44.46;99542.78;5111901;28;20039;-66
2022/07/02 09:13:07;;;;;;;2.15;1.40;;;;;;;25.32;46.17;99534.94;5069103;28;20063;-66
2022/07/02 09:15:52;;;;;;;1.50;0.98;;;;;;;25.10;47.56;99539.34;5082035;28;20368;-67
2022/07/02 09:18:37;;;;;;;2.17;0.82;;;;;;;24.95;47.47;99541.97;5106089;28;20130;-67
2022/07/02 09:21:22;;;;;;;2.05;0.80;;;;;;;24.38;48.41;99534.19;5124295;28;20039;-67
2022/07/02 09:24:06;;;;;;;2.58;1.00;;;;;;;24.09;50.06;99533.78;5089340;28;20083;-67
2022/07/02 09:27:03;;;;;;;2.17;0.88;;;;;;;24.57;52.32;99530.19;5116411;28;20118;-66
2022/07/02 09:29:55;;;;;;;1.38;0.98;;;;;;;25.33;46.33;99533.91;5113474;28;20069;-67
2022/07/02 09:36:10;;;;;;;3.97;1.45;;;;;;;24.17;48.55;99530.25;5073058;28;20036;-67
2022/07/02 09:38:55;;;;;;;2.00;1.00;;;;;;;24.24;49.20;99525.03;5045502;28;20068;-67
2022/07/02 09:41:44;;;;;;;1.40;1.00;;;;;;;26.29;44.46;99525.22;5073188;28;20048;-67
2022/07/02 09:44:31;;;;;;;1.10;0.87;;;;;;;25.36;46.45;99518.47;5072795;28;20044;-66
2022/07/02 09:47:53;;;;;;;2.80;0.90;;;;;;;25.64;44.67;99513.31;5072919;28;20128;-67
2022/07/02 09:50:39;;;;;;;1.45;0.70;;;;;;;26.13;44.66;99518.25;5058113;28;20040;-66
2022/07/02 09:53:24;;;;;;;1.52;1.00;;;;;;;26.91;42.54;99533.66;5030775;28;20063;-63
2022/07/02 09:56:09;;;;;;;1.48;0.93;;;;;;;26.36;42.86;99523.47;5046210;28;20048;-66
2022/07/02 09:58:58;;;;;;;1.08;0.75;;;;;;;26.41;43.47;99523.72;5041636;28;20044;-66
2022/07/02 10:01:44;;;;;;;1.30;0.77;;;;;;;26.59;42.79;99527.81;5044804;28;20068;-67
2022/07/02 10:04:33;;;;;;;6.30;1.00;;;;;;;27.58;42.62;99519.06;5072618;28;20048;-66
2022/07/02 10:07:23;;;;;;;1.98;1.30;;;;;;;26.29;43.19;99531.41;5102153;28;20040;-68
2022/07/02 10:10:08;;;;;;;1.80;0.93;;;;;;;26.41;41.86;99526.41;5114950;28;20032;-66
2022/07/02 10:12:55;;;;;;;1.20;0.95;;;;;;;27.15;41.24;99512.81;5114587;28;20117;-66
2022/07/02 10:15:51;;;;;;;1.42;1.00;;;;;;;28.87;37.76;99505.94;5099366;28;20469;-67
2022/07/02 10:18:42;;;;;;;1.33;0.90;;;;;;;29.39;37.03;99508.75;5090264;28;20036;-67
2022/07/02 10:21:27;;;;;;;1.33;1.13;;;;;;;27.98;39.10;99518.41;5099197;28;20046;-68
2022/07/02 10:24:13;;;;;;;1.67;0.80;;;;;;;27.34;39.57;99513.09;5070601;28;20067;-66
2022/07/02 10:27:00;;;;;;;2.10;0.75;;;;;;;27.03;40.37;99503.59;5086541;28;20042;-64
2022/07/02 10:29:45;;;;;;;1.27;0.70;;;;;;;27.47;39.17;99490.03;5070893;28;20058;-66
2022/07/02 10:32:41;;;;;;;1.20;0.80;;;;;;;27.85;39.02;99489.59;5082679;28;20066;-67
2022/07/02 10:35:27;;;;;;;1.88;0.93;;;;;;;28.38;37.90;99485.38;5087907;28;20028;-67
2022/07/02 10:38:11;;;;;;;0.95;0.80;;;;;;;28.64;40.51;99494.50;5115136;28;20115;-66
2022/07/02 10:40:56;;;;;;;1.70;0.95;;;;;;;28.68;37.92;99489.53;5099564;28;20040;-67
2022/07/02 10:43:42;;;;;;;1.20;0.80;;;;;;;27.85;38.92;99484.22;5101691;28;20039;-67
2022/07/02 10:46:33;;;;;;;2.80;1.10;;;;;;;27.81;39.28;99484.81;5114593;28;20491;-68
2022/07/02 10:49:27;;;;;;;3.40;0.90;;;;;;;28.81;37.74;99480.63;5099977;28;20043;-67
2022/07/02 10:52:11;;;;;;;1.45;0.90;;;;;;;28.35;38.31;99480.41;5097585;28;20047;-67
2022/07/02 10:54:56;;;;;;;1.23;0.80;;;;;;;28.26;37.73;99481.63;5098494;28;20044;-67
2022/07/02 10:57:41;;;;;;;1.48;0.85;;;;;;;28.22;37.14;99483.06;5085464;28;20035;-66
2022/07/02 11:00:31;;;;;;;1.90;0.90;;;;;;;26.43;40.10;99481.41;5114358;28;20047;-66
2022/07/02 11:03:26;;;;;;;1.70;0.80;;;;;;;27.30;40.42;99472.34;5099597;28;20036;-68
2022/07/02 11:06:23;;;;;;;1.17;0.68;;;;;;;26.75;43.77;99472.97;5069394;28;20134;-66
2022/07/02 11:09:09;;;;;;;1.33;0.93;;;;;;;27.69;38.28;99473.78;5114170;28;20051;-67
2022/07/02 11:12:01;;;;;;;0.70;0.60;;;;;;;26.90;41.73;99477.44;5113957;28;20059;-67
2022/07/02 11:14:55;;;;;;;2.78;0.63;;;;;;;27.48;39.65;99470.16;5083837;28;20386;-67
2022/07/02 11:17:41;;;;;;;1.08;0.63;;;;;;;28.16;40.40;99460.47;5100487;28;20039;-67
2022/07/02 11:20:27;;;;;;;1.30;0.80;;;;;;;27.26;40.26;99460.31;5121570;28;20039;-66
2022/07/02 11:23:12;;;;;;;1.00;0.75;;;;;;;27.86;39.36;99466.22;5118630;28;20058;-65
2022/07/02 11:25:57;;;;;;;1.13;0.68;;;;;;;27.02;39.03;99456.25;5105162;28;20065;-68
2022/07/02 11:28:43;;;;;;;1.10;0.63;;;;;;;27.39;39.13;99458.72;5094915;28;20036;-67
2022/07/02 11:31:28;;;;;;;2.15;1.13;;;;;;;28.44;37.08;99464.88;5095896;28;20052;-66
2022/07/02 11:34:18;;;;;;;2.70;0.70;;;;;;;28.19;38.85;99454.66;5114772;28;20143;-67
2022/07/02 11:37:03;;;;;;;1.52;0.80;;;;;;;28.54;36.91;99456.41;5099058;28;20067;-65
2022/07/02 11:39:48;;;;;;;1.77;0.90;;;;;;;28.13;36.21;99456.34;5091178;28;20090;-66
2022/07/02 11:42:37;;;;;;;1.63;1.05;;;;;;;28.06;37.81;99441.22;5098288;28;20047;-67
2022/07/02 11:45:21;;;;;;;0.85;0.70;;;;;;;28.35;37.18;99455.34;5083388;28;20035;-66
2022/07/02 11:48:18;;;;;;;1.00;0.80;;;;;;;28.92;36.77;99454.94;5098512;28;20077;-66
2022/07/02 11:51:04;;;;;;;0.60;0.50;;;;;;;30.04;33.73;99459.53;5083926;28;20470;-66
2022/07/02 11:53:55;;;;;;;1.38;0.68;;;;;;;28.65;35.30;99455.78;5096522;28;20059;-66
2022/07/02 11:56:42;;;;;;;1.67;0.80;;;;;;;27.52;36.26;99445.34;5104654;28;20390;-66
2022/07/02 11:59:27;;;;;;;0.90;0.80;;;;;;;27.77;36.87;99441.31;5077776;28;20055;-66
2022/07/02 12:02:11;;;;;;;1.10;0.80;;;;;;;27.58;36.91;99451.81;5108428;28;20364;-66
2022/07/02 12:04:56;;;;;;;2.03;0.60;;;;;;;28.92;36.85;99451.41;5097803;28;20402;-67
2022/07/02 12:07:42;;;;;;;0.82;0.60;;;;;;;29.09;35.78;99441.84;5112671;28;20055;-67
2022/07/02 12:10:27;;;;;;;1.50;0.75;;;;;;;29.34;33.87;99448.41;5055567;28;20044;-66
2022/07/02 12:13:12;;;;;;;0.95;0.52;;;;;;;29.25;34.29;99440.56;5085069;28;20036;-66
2022/07/02 12:15:57;;;;;;;0.63;0.60;;;;;;;29.16;39.99;99436.44;5112903;28;20051;-68
2022/07/02 12:18:42;;;;;;;0.90;0.60;;;;;;;29.64;33.81;99437.09;5073086;28;20040;-68
2022/07/02 12:21:45;;;;;;;0.88;0.70;;;;;;;29.62;33.73;99426.53;5112337;28;20035;-68
2022/07/02 12:24:32;;;;;;;0.57;0.47;;;;;;;29.48;33.06;99430.28;5080816;28;20493;-67
2022/07/02 12:27:16;;;;;;;1.30;0.60;;;;;;;29.01;33.56;99433.97;5112844;28;20051;-66
2022/07/02 12:30:12;;;;;;;1.70;0.55;;;;;;;29.03;33.48;99431.91;5098518;28;20043;-68
2022/07/02 12:32:57;;;;;;;1.58;0.70;;;;;;;29.70;34.63;99422.78;5112634;28;20047;-67
2022/07/02 12:35:43;;;;;;;0.88;0.68;;;;;;;29.01;33.17;99421.34;5083687;28;20046;-67
2022/07/02 12:38:28;;;;;;;1.02;0.60;;;;;;;29.20;34.01;99417.97;5112064;28;20043;-68
2022/07/02 12:41:13;;;;;;;1.20;0.70;;;;;;;29.53;33.19;99406.19;5097865;28;20117;-66
2022/07/02 12:43:58;;;;;;;1.90;1.15;;;;;;;29.95;33.02;99413.06;5056302;28;20367;-68
2022/07/02 12:46:49;;;;;;;1.70;0.77;;;;;;;31.11;31.16;99413.75;5097682;28;20038;-67
2022/07/02 12:49:34;;;;;;;2.15;0.70;;;;;;;30.84;33.58;99403.22;5098736;28;20057;-67
2022/07/02 12:52:19;;;;;;;1.10;0.60;;;;;;;30.67;35.16;99409.19;5113020;28;20043;-66
2022/07/02 12:55:04;;;;;;;3.97;0.80;;;;;;;31.29;31.92;99418.31;5113306;28;20069;-67
2022/07/02 12:57:49;;;;;;;0.77;0.60;;;;;;;30.48;30.75;99411.88;5099689;28;20028;-67
2022/07/02 13:00:36;;;;;;;1.05;0.80;;;;;;;30.98;33.31;99403.91;5112014;28;20032;-67
2022/07/02 13:03:22;;;;;;;1.92;0.80;;;;;;;29.94;33.68;99411.41;5098317;28;20039;-66